Time;durP1;ratioP1;P1;durP2;ratioP2;P2;SDS_P1;SDS_P2;PMS_P1;PMS_P2;Temp;Humidity;BMP_temperature;BMP_pressure;BME280_temperature;BME280_humidity;BME280_pressure;Samples;Min_cycle;Max_cycle;Signal;HPM_P1;HPM_P2
2023/05/10 00:00:23;;;;;;;3.70;3.40;;;13.20;99.90;;;;;;5114926;28;20293;-46
2023/05/10 00:02:49;;;;;;;3.97;3.67;;;13.20;99.90;;;;;;5114942;28;20240;-46
2023/05/10 00:05:15;;;;;;;3.90;3.60;;;13.20;99.90;;;;;;5115273;28;20189;-47
2023/05/10 00:07:40;;;;;;;5.53;3.67;;;13.20;99.90;;;;;;5115123;28;20178;-46
2023/05/10 00:10:06;;;;;;;4.83;4.43;;;13.20;99.90;;;;;;5115022;28;20226;-46
2023/05/10 00:12:32;;;;;;;3.90;3.60;;;13.20;99.90;;;;;;5115220;28;20579;-46
2023/05/10 00:14:57;;;;;;;4.10;3.80;;;13.20;99.90;;;;;;5119919;28;20630;-48
2023/05/10 00:17:23;;;;;;;4.00;3.70;;;13.20;99.90;;;;;;5124093;28;20178;-46
2023/05/10 00:19:48;;;;;;;3.93;3.63;;;13.20;99.90;;;;;;5119195;28;20218;-47
2023/05/10 00:22:14;;;;;;;4.10;3.80;;;13.20;99.90;;;;;;5114637;28;20234;-47
2023/05/10 00:24:40;;;;;;;4.17;3.87;;;13.20;99.90;;;;;;5114384;28;20178;-45
2023/05/10 00:27:05;;;;;;;4.50;4.10;;;13.20;99.90;;;;;;5114501;28;20168;-46
2023/05/10 00:29:31;;;;;;;4.80;4.40;;;13.20;99.90;;;;;;5114618;28;20548;-47
2023/05/10 00:31:57;;;;;;;4.53;4.13;;;13.20;99.90;;;;;;5114132;28;20619;-47
2023/05/10 00:34:22;;;;;;;4.77;4.37;;;13.20;99.90;;;;;;5114284;28;20177;-46
2023/05/10 00:36:48;;;;;;;4.27;3.87;;;13.20;99.90;;;;;;5114102;28;20224;-48
2023/05/10 00:39:13;;;;;;;4.53;4.13;;;13.20;99.90;;;;;;5113977;28;20207;-46
2023/05/10 00:41:39;;;;;;;5.43;4.93;;;13.20;99.90;;;;;;5114906;28;20631;-48
2023/05/10 00:44:05;;;;;;;4.73;4.33;;;13.20;99.90;;;;;;5114519;28;20265;-48
2023/05/10 00:46:31;;;;;;;4.77;4.37;;;13.20;99.90;;;;;;5114225;28;20173;-47
2023/05/10 00:48:57;;;;;;;5.23;4.83;;;13.20;99.90;;;;;;5114488;28;20269;-47
2023/05/10 00:51:22;;;;;;;5.80;5.20;;;13.20;99.90;;;;;;5114439;28;20205;-48
2023/05/10 00:53:50;;;;;;;5.50;5.00;;;13.20;99.90;;;;;;5114499;28;20221;-46
2023/05/10 00:56:16;;;;;;;4.93;4.53;;;13.10;99.90;;;;;;5114277;28;20654;-49
2023/05/10 00:58:42;;;;;;;4.63;4.23;;;13.10;99.90;;;;;;5113918;28;20254;-48
2023/05/10 01:01:08;;;;;;;5.00;4.50;;;13.20;99.90;;;;;;5113819;28;20174;-48
2023/05/10 01:03:35;;;;;;;5.17;4.50;;;13.10;99.90;;;;;;5113678;28;20273;-47
2023/05/10 01:06:01;;;;;;;4.80;4.33;;;13.10;99.90;;;;;;5112507;28;20648;-49
2023/05/10 01:08:28;;;;;;;5.07;4.57;;;13.10;99.90;;;;;;5113669;28;20273;-48
2023/05/10 01:10:54;;;;;;;5.17;4.77;;;13.10;99.90;;;;;;5113731;28;20215;-50
2023/05/10 01:13:35;;;;;;;4.67;4.27;;;13.10;99.90;;;;;;5113672;28;20725;-47
2023/05/10 01:16:03;;;;;;;4.53;4.13;;;13.10;99.90;;;;;;5113781;28;20188;-46
2023/05/10 01:18:30;;;;;;;4.70;4.30;;;13.10;99.90;;;;;;5113760;28;20573;-47
2023/05/10 01:21:23;;;;;;;4.60;4.20;;;13.10;99.90;;;;;;5113866;28;20178;-48
2023/05/10 01:24:17;;;;;;;4.70;4.30;;;13.10;99.90;;;;;;5105523;28;20203;-47
2023/05/10 01:27:18;;;;;;;5.00;4.60;;;13.10;99.90;;;;;;5114050;28;20190;-47
2023/05/10 01:29:56;;;;;;;4.43;4.03;;;13.10;99.90;;;;;;5117971;28;20172;-50
2023/05/10 01:32:40;;;;;;;4.40;4.00;;;13.10;99.90;;;;;;5117529;28;20194;-48
2023/05/10 01:35:07;;;;;;;4.40;4.00;;;13.10;99.90;;;;;;5117595;28;20158;-48
2023/05/10 01:37:45;;;;;;;4.03;3.73;;;13.10;99.90;;;;;;5117427;28;20189;-50
2023/05/10 01:40:22;;;;;;;4.40;4.00;;;13.00;99.90;;;;;;5117345;28;20289;-50
2023/05/10 01:42:53;;;;;;;4.00;3.70;;;13.10;99.90;;;;;;5117595;28;20203;-48
2023/05/10 01:45:21;;;;;;;3.57;3.27;;;13.10;99.90;;;;;;5117949;28;20161;-51
2023/05/10 01:47:54;;;;;;;4.40;4.00;;;13.10;99.90;;;;;;5117610;28;20550;-48
2023/05/10 01:50:24;;;;;;;4.07;3.67;;;13.10;99.90;;;;;;5117532;28;20170;-50
2023/05/10 01:52:54;;;;;;;3.73;3.43;;;13.00;99.90;;;;;;5117497;28;20223;-50
2023/05/10 01:55:23;;;;;;;3.17;2.87;;;13.00;99.90;;;;;;5117578;28;20697;-48
2023/05/10 01:57:56;;;;;;;3.60;3.30;;;13.00;99.90;;;;;;5117960;28;20198;-51
2023/05/10 02:00:23;;;;;;;4.53;3.17;;;13.00;99.90;;;;;;5117697;28;20287;-50
2023/05/10 02:02:50;;;;;;;3.60;3.30;;;13.00;99.90;;;;;;5116965;28;20285;-50
2023/05/10 02:05:17;;;;;;;3.40;3.10;;;13.00;99.90;;;;;;5117257;28;20628;-49
2023/05/10 02:07:44;;;;;;;3.60;3.30;;;12.90;99.90;;;;;;5117133;28;20589;-50
2023/05/10 02:10:11;;;;;;;4.60;3.37;;;13.00;99.90;;;;;;5116929;28;20646;-51
2023/05/10 02:12:40;;;;;;;3.50;3.20;;;13.00;99.90;;;;;;5115480;28;20563;-50
2023/05/10 02:15:07;;;;;;;3.23;2.93;;;12.90;99.90;;;;;;5116748;28;20182;-48
2023/05/10 02:17:36;;;;;;;3.40;3.10;;;12.90;99.90;;;;;;5116940;28;20235;-49
2023/05/10 02:20:03;;;;;;;3.70;3.40;;;12.90;99.90;;;;;;5115330;28;20697;-49
2023/05/10 02:22:29;;;;;;;3.87;3.37;;;12.90;99.90;;;;;;5115282;28;20674;-49
2023/05/10 02:24:57;;;;;;;3.90;3.47;;;12.90;99.90;;;;;;5116894;28;20189;-51
2023/05/10 02:27:24;;;;;;;3.90;3.50;;;12.90;99.90;;;;;;5116466;28;20178;-50
2023/05/10 02:29:51;;;;;;;4.20;3.70;;;12.90;99.90;;;;;;5116726;28;20273;-50
2023/05/10 02:32:17;;;;;;;5.60;3.97;;;12.90;99.90;;;;;;5116425;28;20265;-50
2023/05/10 02:34:45;;;;;;;4.27;3.87;;;12.90;99.90;;;;;;5115063;28;20673;-50
2023/05/10 02:37:15;;;;;;;5.80;3.60;;;12.80;99.90;;;;;;5116308;28;20772;-50
2023/05/10 02:39:43;;;;;;;5.27;4.37;;;12.90;99.90;;;;;;5115258;28;20193;-50
2023/05/10 02:42:19;;;;;;;4.73;4.30;;;12.80;99.90;;;;;;5114984;28;20534;-51
2023/05/10 02:44:50;;;;;;;5.37;4.80;;;12.90;99.90;;;;;;5114982;28;20525;-50
2023/05/10 02:47:16;;;;;;;6.80;5.90;;;12.90;99.90;;;;;;5116085;28;20174;-49
2023/05/10 02:49:42;;;;;;;7.13;5.77;;;12.90;99.90;;;;;;5116100;28;20304;-51
2023/05/10 02:52:11;;;;;;;6.47;5.77;;;12.90;99.90;;;;;;5116305;28;20179;-49
2023/05/10 02:54:44;;;;;;;7.10;6.40;;;13.00;99.90;;;;;;5116272;28;20566;-49
2023/05/10 02:57:15;;;;;;;8.53;6.53;;;12.90;99.90;;;;;;5116589;28;20157;-50
2023/05/10 02:59:42;;;;;;;8.07;6.53;;;13.00;99.90;;;;;;5115880;28;20194;-50
2023/05/10 03:02:10;;;;;;;6.37;5.77;;;13.00;99.90;;;;;;5116084;28;20178;-49
2023/05/10 03:04:35;;;;;;;7.87;6.33;;;13.00;99.90;;;;;;5116150;28;20162;-50
2023/05/10 03:07:02;;;;;;;6.30;5.43;;;13.00;99.90;;;;;;5115998;28;20292;-50
2023/05/10 03:09:27;;;;;;;6.33;5.43;;;13.00;99.90;;;;;;5116048;28;20592;-51
2023/05/10 03:12:18;;;;;;;5.50;4.87;;;13.00;99.90;;;;;;5115582;28;20205;-49
2023/05/10 03:14:54;;;;;;;6.10;5.50;;;13.00;99.90;;;;;;5115751;28;20178;-51
2023/05/10 03:17:45;;;;;;;8.70;5.70;;;13.00;99.90;;;;;;5115612;28;20672;-52
2023/05/10 03:20:21;;;;;;;6.23;5.00;;;13.00;99.90;;;;;;5115755;28;20225;-50
2023/05/10 03:22:55;;;;;;;6.07;5.40;;;13.00;99.90;;;;;;5115525;28;20282;-51
2023/05/10 03:25:21;;;;;;;5.30;4.53;;;13.00;99.90;;;;;;5116006;28;20300;-49
2023/05/10 03:27:47;;;;;;;5.23;4.70;;;13.00;99.90;;;;;;5116130;28;20296;-51
2023/05/10 03:30:13;;;;;;;7.17;5.00;;;13.00;99.90;;;;;;5115651;28;20576;-51
2023/05/10 03:32:39;;;;;;;4.93;4.00;;;13.00;99.90;;;;;;5115321;28;20274;-50
2023/05/10 03:35:13;;;;;;;4.97;4.47;;;13.00;99.90;;;;;;5115390;28;20274;-50
2023/05/10 03:37:38;;;;;;;4.70;4.20;;;13.00;99.90;;;;;;5115920;28;20197;-50
2023/05/10 03:40:05;;;;;;;4.37;3.97;;;13.00;99.90;;;;;;5116803;28;20202;-50
2023/05/10 03:42:30;;;;;;;4.90;4.40;;;12.90;99.90;;;;;;5117782;28;20684;-50
2023/05/10 03:44:56;;;;;;;5.37;3.80;;;13.00;99.90;;;;;;5114108;28;20175;-52
2023/05/10 03:47:22;;;;;;;4.80;4.07;;;12.90;99.90;;;;;;5115170;28;20171;-49
2023/05/10 03:49:47;;;;;;;5.90;3.60;;;12.90;99.90;;;;;;5115074;28;20658;-51
2023/05/10 03:52:13;;;;;;;6.17;4.20;;;12.90;99.90;;;;;;5113829;28;20224;-51
2023/05/10 03:54:38;;;;;;;4.97;4.23;;;12.90;99.90;;;;;;5115259;28;20189;-51
2023/05/10 03:57:04;;;;;;;6.20;4.00;;;12.90;99.90;;;;;;5115234;28;20645;-50
2023/05/10 03:59:30;;;;;;;4.10;3.70;;;12.90;99.90;;;;;;5115054;28;20745;-50
2023/05/10 04:01:55;;;;;;;4.87;3.80;;;12.80;99.90;;;;;;5114597;28;20170;-51
2023/05/10 04:04:22;;;;;;;4.60;3.87;;;12.90;99.90;;;;;;5114683;28;20174;-50
2023/05/10 04:06:48;;;;;;;5.27;3.50;;;12.80;99.90;;;;;;5115312;28;20166;-50
2023/05/10 04:09:14;;;;;;;4.60;3.57;;;12.90;99.90;;;;;;5114994;28;20174;-50
2023/05/10 04:11:39;;;;;;;4.63;3.67;;;12.80;99.90;;;;;;5114892;28;20206;-50
2023/05/10 04:14:05;;;;;;;5.03;3.70;;;12.80;99.90;;;;;;5114558;28;20190;-49
2023/05/10 04:16:30;;;;;;;4.40;3.97;;;12.80;99.90;;;;;;5113200;28;20231;-51
2023/05/10 04:18:57;;;;;;;5.30;4.20;;;12.80;99.90;;;;;;5114547;28;20202;-50
2023/05/10 04:21:23;;;;;;;5.83;3.93;;;12.80;99.90;;;;;;5114602;28;20255;-50
2023/05/10 04:23:48;;;;;;;6.10;4.13;;;12.80;99.90;;;;;;5114365;28;20265;-51
2023/05/10 04:26:14;;;;;;;5.93;4.67;;;12.80;99.90;;;;;;5114593;28;20163;-50
2023/05/10 04:28:40;;;;;;;7.87;4.93;;;12.80;99.90;;;;;;5113845;28;20520;-51
2023/05/10 04:31:07;;;;;;;5.90;4.47;;;12.80;99.90;;;;;;5112999;28;20277;-50
2023/05/10 04:33:34;;;;;;;5.47;4.73;;;12.80;99.90;;;;;;5113481;28;20202;-50
2023/05/10 04:36:00;;;;;;;5.43;4.60;;;12.80;99.90;;;;;;5114047;28;20198;-50
2023/05/10 04:38:26;;;;;;;5.87;4.67;;;12.80;99.90;;;;;;5114368;28;20654;-51
2023/05/10 04:40:52;;;;;;;6.30;4.50;;;12.80;99.90;;;;;;5114113;28;20257;-50
2023/05/10 04:43:18;;;;;;;5.63;4.60;;;12.80;99.90;;;;;;5114359;28;20279;-51
2023/05/10 04:45:43;;;;;;;8.17;4.80;;;12.80;99.90;;;;;;5114306;28;20522;-50
2023/05/10 04:48:09;;;;;;;5.17;4.50;;;12.80;99.90;;;;;;5114231;28;20255;-51
2023/05/10 04:50:35;;;;;;;6.83;4.60;;;12.80;99.90;;;;;;5113894;28;20174;-49
2023/05/10 04:53:00;;;;;;;6.60;5.20;;;12.80;99.90;;;;;;5113830;28;20198;-52
2023/05/10 04:55:26;;;;;;;6.27;5.17;;;12.80;99.90;;;;;;5114243;28;20209;-50
2023/05/10 04:57:52;;;;;;;7.37;5.60;;;12.80;99.90;;;;;;5113913;28;20737;-52
2023/05/10 05:00:18;;;;;;;9.60;5.77;;;12.80;99.90;;;;;;5114115;28;20190;-52
2023/05/10 05:02:47;;;;;;;8.10;5.53;;;12.80;99.90;;;;;;5113333;28;20190;-51
2023/05/10 05:05:13;;;;;;;6.87;5.63;;;12.80;99.90;;;;;;5113929;28;20174;-51
2023/05/10 05:07:39;;;;;;;9.07;6.30;;;12.80;99.90;;;;;;5114284;28;20186;-50
2023/05/10 05:10:06;;;;;;;8.93;6.50;;;12.80;99.90;;;;;;5113903;28;20216;-50
2023/05/10 05:12:32;;;;;;;8.63;6.60;;;12.80;99.90;;;;;;5113518;28;20207;-52
2023/05/10 05:14:58;;;;;;;8.33;6.60;;;12.80;99.90;;;;;;5114107;28;20174;-52
2023/05/10 05:17:23;;;;;;;9.07;6.67;;;12.80;99.90;;;;;;5114527;28;20186;-52
2023/05/10 05:19:49;;;;;;;9.60;6.83;;;12.80;99.90;;;;;;5113798;28;20205;-52
2023/05/10 05:22:14;;;;;;;7.10;6.13;;;12.80;99.90;;;;;;5114125;28;20273;-51
2023/05/10 05:24:40;;;;;;;10.20;6.67;;;12.80;99.90;;;;;;5113579;28;20239;-52
2023/05/10 05:27:06;;;;;;;8.07;6.67;;;12.80;99.90;;;;;;5113576;28;20174;-52
2023/05/10 05:29:31;;;;;;;7.70;6.43;;;12.90;99.90;;;;;;5113832;28;20292;-51
2023/05/10 05:31:57;;;;;;;13.03;7.23;;;12.90;99.90;;;;;;5113471;28;20643;-50
2023/05/10 05:34:24;;;;;;;10.17;6.67;;;12.80;99.90;;;;;;5113524;28;20190;-51
2023/05/10 05:36:49;;;;;;;10.20;7.17;;;12.80;99.90;;;;;;5113489;28;20200;-50
2023/05/10 05:39:15;;;;;;;8.83;7.13;;;12.90;99.90;;;;;;5114569;28;20277;-49
2023/05/10 05:41:41;;;;;;;9.17;7.53;;;12.80;99.90;;;;;;5113571;28;20186;-49
2023/05/10 05:44:06;;;;;;;11.87;7.73;;;12.80;99.90;;;;;;5113569;28;20186;-51
2023/05/10 05:46:32;;;;;;;10.90;7.97;;;12.80;99.90;;;;;;5113627;28;20541;-49
2023/05/10 05:48:57;;;;;;;10.50;7.43;;;12.80;99.90;;;;;;5113455;28;20185;-48
2023/05/10 05:51:23;;;;;;;11.33;7.80;;;12.80;99.90;;;;;;5112307;28;20255;-51
2023/05/10 05:53:48;;;;;;;8.70;6.87;;;12.80;99.90;;;;;;5113346;28;20198;-50
2023/05/10 05:56:14;;;;;;;10.37;7.33;;;12.80;99.90;;;;;;5113749;28;20322;-50
2023/05/10 05:58:39;;;;;;;12.63;7.63;;;12.80;99.90;;;;;;5113461;28;20247;-51
2023/05/10 06:01:05;;;;;;;10.97;7.60;;;12.80;99.90;;;;;;5113736;28;20167;-49
2023/05/10 06:03:31;;;;;;;12.33;8.67;;;12.80;99.90;;;;;;5113554;28;20220;-50
2023/05/10 06:05:56;;;;;;;9.83;7.77;;;12.90;99.90;;;;;;5113513;28;20201;-51
2023/05/10 06:08:22;;;;;;;8.80;7.40;;;12.90;99.90;;;;;;5113371;28;20173;-50
2023/05/10 06:10:48;;;;;;;11.63;8.50;;;12.90;99.90;;;;;;5113185;28;20201;-50
2023/05/10 06:13:13;;;;;;;10.73;7.93;;;12.90;99.90;;;;;;5113091;28;20228;-50
2023/05/10 06:15:39;;;;;;;11.90;7.53;;;12.90;99.90;;;;;;5116335;28;20227;-50
2023/05/10 06:18:05;;;;;;;12.47;8.90;;;12.90;99.90;;;;;;5117013;28;20174;-50
2023/05/10 06:20:31;;;;;;;10.60;8.33;;;13.00;99.90;;;;;;5116929;28;20296;-51
2023/05/10 06:22:57;;;;;;;12.50;8.23;;;13.00;99.90;;;;;;5116863;28;20285;-49
2023/05/10 06:25:23;;;;;;;11.53;8.43;;;13.00;99.90;;;;;;5116729;28;20174;-51
2023/05/10 06:27:49;;;;;;;11.83;8.13;;;13.00;99.90;;;;;;5116957;28;20564;-49
2023/05/10 06:30:15;;;;;;;9.90;7.83;;;13.00;99.90;;;;;;5116618;28;20171;-50
2023/05/10 06:32:40;;;;;;;10.67;8.53;;;13.00;99.90;;;;;;5116509;28;20198;-49
2023/05/10 06:35:06;;;;;;;10.47;8.30;;;13.00;99.90;;;;;;5116640;28;20178;-51
2023/05/10 06:37:32;;;;;;;9.70;8.20;;;13.00;99.90;;;;;;5116225;28;20198;-48
2023/05/10 06:39:58;;;;;;;11.53;8.20;;;13.00;99.90;;;;;;5116181;28;20688;-48
2023/05/10 06:42:25;;;;;;;13.93;7.87;;;13.00;99.90;;;;;;5116483;28;20282;-50
2023/05/10 06:44:50;;;;;;;12.40;7.80;;;13.00;99.90;;;;;;5116177;28;20707;-51
2023/05/10 06:47:17;;;;;;;10.43;8.00;;;13.00;99.90;;;;;;5116176;28;20174;-49
2023/05/10 06:49:42;;;;;;;11.17;7.90;;;12.90;99.90;;;;;;5116193;28;20224;-48
2023/05/10 06:52:08;;;;;;;12.50;8.50;;;12.90;99.90;;;;;;5116257;28;20174;-48
2023/05/10 06:54:33;;;;;;;9.63;8.00;;;12.90;99.90;;;;;;5115954;28;20209;-49
2023/05/10 06:56:59;;;;;;;10.97;8.80;;;12.90;99.90;;;;;;5116030;28;20174;-49
2023/05/10 06:59:25;;;;;;;10.07;7.93;;;12.90;99.90;;;;;;5116963;28;20561;-49
2023/05/10 07:01:50;;;;;;;10.70;8.53;;;12.90;99.90;;;;;;5125070;28;20182;-48
2023/05/10 07:04:17;;;;;;;13.13;8.13;;;12.90;99.90;;;;;;5124184;28;20251;-50
2023/05/10 07:06:43;;;;;;;12.47;8.77;;;12.90;99.90;;;;;;5116210;28;20216;-49
2023/05/10 07:09:08;;;;;;;12.23;8.67;;;12.90;99.90;;;;;;5115945;28;20715;-49
2023/05/10 07:11:34;;;;;;;11.20;8.27;;;12.90;99.90;;;;;;5116034;28;20227;-50
2023/05/10 07:14:00;;;;;;;12.37;9.77;;;12.90;99.90;;;;;;5116114;28;20293;-50
2023/05/10 07:16:25;;;;;;;12.93;10.33;;;13.00;99.90;;;;;;5115558;28;20183;-49
2023/05/10 07:18:52;;;;;;;13.03;9.47;;;13.00;99.90;;;;;;5115672;28;20275;-51
2023/05/10 07:21:18;;;;;;;15.93;10.73;;;13.00;99.90;;;;;;5115963;28;20178;-48
2023/05/10 07:23:44;;;;;;;14.70;10.50;;;13.10;99.90;;;;;;5115405;28;20232;-49
2023/05/10 07:26:10;;;;;;;15.73;11.33;;;13.10;99.90;;;;;;5115427;28;20171;-49
2023/05/10 07:28:37;;;;;;;14.97;11.20;;;13.20;99.90;;;;;;5115597;28;20219;-50
2023/05/10 07:31:02;;;;;;;16.90;11.67;;;13.20;99.90;;;;;;5115588;28;20186;-50
2023/05/10 07:33:28;;;;;;;14.60;10.93;;;13.30;99.90;;;;;;5115743;28;20204;-50
2023/05/10 07:35:54;;;;;;;16.53;11.27;;;13.30;99.90;;;;;;5115137;28;20185;-48
2023/05/10 07:38:19;;;;;;;16.73;11.07;;;13.30;99.90;;;;;;5115206;28;20173;-50
2023/05/10 07:40:45;;;;;;;12.33;9.90;;;13.30;99.90;;;;;;5114791;28;20188;-49
2023/05/10 07:43:10;;;;;;;14.50;10.77;;;13.40;99.90;;;;;;5115067;28;20205;-49
2023/05/10 07:45:36;;;;;;;15.40;10.80;;;13.40;99.90;;;;;;5115429;28;20166;-50
2023/05/10 07:48:02;;;;;;;18.27;10.73;;;13.50;99.90;;;;;;5114952;28;20311;-48
2023/05/10 07:50:27;;;;;;;14.27;10.53;;;13.50;99.90;;;;;;5114944;28;20204;-50
2023/05/10 07:52:53;;;;;;;15.97;11.67;;;13.50;99.90;;;;;;5113541;28;20296;-49
2023/05/10 07:55:20;;;;;;;14.30;10.70;;;13.60;99.90;;;;;;5114814;28;20213;-51
2023/05/10 07:57:46;;;;;;;16.10;10.30;;;13.70;99.90;;;;;;5115193;28;20189;-48
2023/05/10 08:00:18;;;;;;;15.20;10.20;;;13.70;99.90;;;;;;5114755;28;20198;-50
2023/05/10 08:02:43;;;;;;;15.60;10.73;;;13.70;99.90;;;;;;5115073;28;20194;-50
2023/05/10 08:05:09;;;;;;;14.10;9.70;;;13.70;99.90;;;;;;5115008;28;20235;-50
2023/05/10 08:07:35;;;;;;;15.97;9.17;;;13.80;99.90;;;;;;5114600;28;20174;-50
2023/05/10 08:10:01;;;;;;;12.33;9.50;;;13.80;99.90;;;;;;5115653;28;20221;-50
2023/05/10 08:12:27;;;;;;;15.30;9.20;;;13.80;99.90;;;;;;5114826;28;20194;-49
2023/05/10 08:14:52;;;;;;;11.23;8.40;;;13.70;99.90;;;;;;5114967;28;20253;-48
2023/05/10 08:17:18;;;;;;;10.30;8.57;;;13.70;99.90;;;;;;5114636;28;20178;-51
2023/05/10 08:19:43;;;;;;;11.37;8.57;;;13.70;99.90;;;;;;5114742;28;20206;-50
2023/05/10 08:22:09;;;;;;;11.00;8.10;;;13.80;99.90;;;;;;5114251;28;20170;-51
2023/05/10 08:24:38;;;;;;;11.03;8.53;;;13.70;99.90;;;;;;5114365;28;20170;-50
2023/05/10 08:27:04;;;;;;;11.70;8.03;;;13.70;99.90;;;;;;5114280;28;20178;-51
2023/05/10 08:29:30;;;;;;;13.87;8.77;;;13.70;99.90;;;;;;5114237;28;20175;-49
2023/05/10 08:31:56;;;;;;;10.33;8.47;;;13.70;99.90;;;;;;5114432;28;20178;-51
2023/05/10 08:34:21;;;;;;;11.77;8.17;;;13.80;99.90;;;;;;5112940;28;20230;-50
2023/05/10 08:36:47;;;;;;;10.97;8.03;;;13.80;99.90;;;;;;5113350;28;20242;-50
2023/05/10 08:39:13;;;;;;;11.70;9.20;;;13.80;99.90;;;;;;5114867;28;20251;-49
2023/05/10 08:41:40;;;;;;;10.80;9.10;;;13.90;99.90;;;;;;5114671;28;20175;-49
2023/05/10 08:44:08;;;;;;;12.73;9.77;;;13.90;99.90;;;;;;5114072;28;20266;-50
2023/05/10 08:46:36;;;;;;;14.20;10.20;;;14.00;99.90;;;;;;5114283;28;20180;-49
2023/05/10 08:49:04;;;;;;;13.40;9.60;;;14.10;99.90;;;;;;5114086;28;20646;-52
2023/05/10 08:51:35;;;;;;;14.63;10.50;;;14.20;99.90;;;;;;5113874;28;20348;-50
2023/05/10 08:54:02;;;;;;;13.10;9.23;;;14.30;99.90;;;;;;5113918;28;20198;-51
2023/05/10 08:56:28;;;;;;;15.90;10.57;;;14.40;99.90;;;;;;5114131;28;20680;-50
2023/05/10 08:58:54;;;;;;;12.37;9.90;;;14.40;99.90;;;;;;5114057;28;20249;-52
2023/05/10 09:01:21;;;;;;;12.73;8.97;;;14.50;99.90;;;;;;5114137;28;20188;-50
2023/05/10 09:03:49;;;;;;;14.70;8.73;;;14.50;99.90;;;;;;5113811;28;20190;-49
2023/05/10 09:06:15;;;;;;;12.83;9.20;;;14.60;99.90;;;;;;5113822;28;20162;-50
2023/05/10 09:08:42;;;;;;;13.87;9.63;;;14.60;99.90;;;;;;5114039;28;20208;-49
2023/05/10 09:11:09;;;;;;;10.63;8.30;;;14.70;99.90;;;;;;5113830;28;20170;-48
2023/05/10 09:13:36;;;;;;;13.10;9.40;;;14.80;99.90;;;;;;5114069;28;20213;-47
2023/05/10 09:16:02;;;;;;;11.87;8.90;;;14.80;99.90;;;;;;5112848;28;20249;-49
2023/05/10 09:18:28;;;;;;;11.83;9.07;;;14.80;99.90;;;;;;5113989;28;20730;-49
2023/05/10 09:20:54;;;;;;;10.43;7.13;;;14.90;99.90;;;;;;5113628;28;20214;-49
2023/05/10 09:23:20;;;;;;;9.90;6.93;;;14.90;99.90;;;;;;5113778;28;20280;-49
2023/05/10 09:25:45;;;;;;;8.77;5.93;;;14.90;99.90;;;;;;5113667;28;20588;-51
2023/05/10 09:28:11;;;;;;;8.10;5.90;;;14.90;99.90;;;;;;5113637;28;20169;-49
2023/05/10 09:30:37;;;;;;;7.00;5.40;;;14.90;99.90;;;;;;5113541;28;20263;-49
2023/05/10 09:33:03;;;;;;;9.47;5.63;;;14.90;99.90;;;;;;5113425;28;20572;-49
2023/05/10 09:35:30;;;;;;;8.17;5.87;;;14.90;99.90;;;;;;5113805;28;20201;-48
2023/05/10 09:37:59;;;;;;;7.30;5.77;;;14.90;99.90;;;;;;5113309;28;20182;-49
2023/05/10 09:40:26;;;;;;;8.43;5.43;;;14.90;99.90;;;;;;5113354;28;20762;-49
2023/05/10 09:42:54;;;;;;;8.57;5.50;;;14.80;99.90;;;;;;5113541;28;20194;-49
2023/05/10 09:45:21;;;;;;;7.60;5.60;;;14.90;99.90;;;;;;5113718;28;20208;-49
2023/05/10 09:47:46;;;;;;;7.60;5.50;;;15.00;99.90;;;;;;5113950;28;20549;-50
2023/05/10 09:50:12;;;;;;;6.67;5.57;;;14.90;99.90;;;;;;5117540;28;20182;-50
2023/05/10 09:52:58;;;;;;;8.87;6.30;;;15.00;99.90;;;;;;5117564;28;20205;-49
2023/05/10 09:55:37;;;;;;;7.60;5.80;;;15.00;99.90;;;;;;5117201;28;20227;-49
2023/05/10 09:58:04;;;;;;;7.17;5.43;;;15.00;99.90;;;;;;5117524;28;20166;-50
2023/05/10 10:00:35;;;;;;;7.63;5.40;;;15.00;99.90;;;;;;5117085;28;20210;-48
2023/05/10 10:03:03;;;;;;;8.00;5.80;;;15.00;99.90;;;;;;5116994;28;20198;-50
2023/05/10 10:05:33;;;;;;;7.40;5.77;;;15.10;99.90;;;;;;5117135;28;20661;-50
2023/05/10 10:08:00;;;;;;;7.30;5.47;;;15.20;99.90;;;;;;5115763;28;20619;-50
2023/05/10 10:10:27;;;;;;;7.07;5.50;;;15.20;99.90;;;;;;5115715;28;20634;-50
2023/05/10 10:12:53;;;;;;;6.77;5.60;;;15.30;99.90;;;;;;5116788;28;20198;-51
2023/05/10 10:15:21;;;;;;;5.80;5.07;;;15.30;99.90;;;;;;5115583;28;20559;-49
2023/05/10 10:17:47;;;;;;;6.83;4.97;;;15.30;99.90;;;;;;5116773;28;20606;-51
2023/05/10 10:20:14;;;;;;;6.50;4.80;;;15.20;99.90;;;;;;5116684;28;20201;-51
2023/05/10 10:22:40;;;;;;;4.67;4.27;;;15.20;99.90;;;;;;5116674;28;20662;-51
2023/05/10 10:25:06;;;;;;;5.20;4.10;;;15.20;99.90;;;;;;5116651;28;20216;-50
2023/05/10 10:27:51;;;;;;;5.63;4.10;;;15.20;99.90;;;;;;5116878;28;20190;-51
2023/05/10 10:30:34;;;;;;;4.73;4.30;;;15.30;99.90;;;;;;5117816;28;20167;-49
2023/05/10 10:33:03;;;;;;;5.53;3.53;;;15.40;99.90;;;;;;5121660;28;20194;-49
2023/05/10 10:35:32;;;;;;;4.90;4.40;;;15.50;99.90;;;;;;5120280;28;20220;-50
2023/05/10 10:37:58;;;;;;;5.50;4.90;;;15.50;99.90;;;;;;5116554;28;20542;-50
2023/05/10 10:40:27;;;;;;;5.37;4.30;;;15.50;99.90;;;;;;5116458;28;20206;-51
2023/05/10 10:42:54;;;;;;;4.70;4.20;;;15.50;99.90;;;;;;5116673;28;20206;-51
2023/05/10 10:45:21;;;;;;;5.03;3.80;;;15.60;99.90;;;;;;5116357;28;20186;-50
2023/05/10 10:47:47;;;;;;;4.17;3.70;;;15.60;99.90;;;;;;5116552;28;20227;-50
2023/05/10 10:50:13;;;;;;;4.60;4.20;;;15.70;99.90;;;;;;5116129;28;20179;-50
2023/05/10 10:52:40;;;;;;;4.80;4.30;;;15.70;99.90;;;;;;5116044;28;20206;-50
2023/05/10 10:55:24;;;;;;;4.07;3.27;;;15.70;99.90;;;;;;5116319;28;20179;-50
2023/05/10 10:57:54;;;;;;;3.70;3.17;;;15.80;99.90;;;;;;5116359;28;20529;-52
2023/05/10 11:00:22;;;;;;;3.00;2.70;;;15.80;99.90;;;;;;5115376;28;20202;-52
2023/05/10 11:03:18;;;;;;;3.40;3.10;;;15.80;99.90;;;;;;5114592;28;20225;-50
2023/05/10 11:05:57;;;;;;;3.30;2.80;;;15.80;99.90;;;;;;5116203;28;20167;-50
2023/05/10 11:08:31;;;;;;;3.10;2.50;;;15.90;99.90;;;;;;5116087;28;20173;-51
2023/05/10 11:10:59;;;;;;;3.80;2.40;;;15.90;99.90;;;;;;5115686;28;20248;-50
2023/05/10 11:13:50;;;;;;;2.40;2.20;;;15.90;99.90;;;;;;5115807;28;20194;-51
2023/05/10 11:16:21;;;;;;;2.30;2.03;;;15.90;99.90;;;;;;5116775;28;20256;-51
2023/05/10 11:19:03;;;;;;;2.37;2.13;;;15.90;99.90;;;;;;5116405;28;20190;-50
2023/05/10 11:21:30;;;;;;;2.47;2.00;;;16.00;99.90;;;;;;5116080;28;20223;-52
2023/05/10 11:23:57;;;;;;;2.50;2.30;;;16.00;99.90;;;;;;5115707;28;20197;-52
2023/05/10 11:26:25;;;;;;;2.40;2.10;;;16.00;99.90;;;;;;5115953;28;20189;-49
2023/05/10 11:28:54;;;;;;;2.30;1.97;;;16.10;99.90;;;;;;5115601;28;20189;-51
2023/05/10 11:31:21;;;;;;;2.33;2.10;;;16.10;99.90;;;;;;5115780;28;20182;-50
2023/05/10 11:33:55;;;;;;;2.23;2.03;;;16.20;99.90;;;;;;5116274;28;20210;-49
2023/05/10 11:36:23;;;;;;;3.23;2.20;;;16.20;99.90;;;;;;5115399;28;20205;-51
2023/05/10 11:38:49;;;;;;;2.50;2.27;;;16.20;99.90;;;;;;5115205;28;20284;-52
2023/05/10 11:41:17;;;;;;;2.20;2.00;;;16.30;99.90;;;;;;5115212;28;20693;-50
2023/05/10 11:43:46;;;;;;;2.30;2.10;;;16.40;99.90;;;;;;5115080;28;20289;-51
2023/05/10 11:46:13;;;;;;;2.83;2.50;;;16.50;99.90;;;;;;5115344;28;20250;-51
2023/05/10 11:48:39;;;;;;;3.80;2.90;;;16.70;99.90;;;;;;5115803;28;20174;-51
2023/05/10 11:51:06;;;;;;;3.17;2.87;;;17.00;99.90;;;;;;5115208;28;20182;-52
2023/05/10 11:53:32;;;;;;;2.90;2.60;;;17.30;99.90;;;;;;5115140;28;20250;-51
2023/05/10 11:56:09;;;;;;;2.80;2.60;;;17.50;99.90;;;;;;5114950;28;20170;-50
2023/05/10 11:58:36;;;;;;;3.97;3.30;;;17.70;99.90;;;;;;5114741;28;20215;-52
2023/05/10 12:01:03;;;;;;;2.70;2.43;;;17.70;99.90;;;;;;5114848;28;20170;-51
2023/05/10 12:03:29;;;;;;;2.30;2.10;;;17.90;99.90;;;;;;5114707;28;20674;-51
2023/05/10 12:05:56;;;;;;;2.63;2.23;;;17.90;99.90;;;;;;5114751;28;20178;-51
2023/05/10 12:08:26;;;;;;;2.60;2.27;;;18.00;99.90;;;;;;5114799;28;20600;-51
2023/05/10 12:10:54;;;;;;;3.43;2.50;;;18.10;99.90;;;;;;5114549;28;20630;-50
2023/05/10 12:13:20;;;;;;;3.03;2.30;;;18.20;99.90;;;;;;5114538;28;20198;-50
2023/05/10 12:15:46;;;;;;;2.33;2.13;;;18.40;99.90;;;;;;5114790;28;20170;-52
2023/05/10 12:18:13;;;;;;;2.30;2.10;;;18.50;99.90;;;;;;5114413;28;20241;-51
2023/05/10 12:20:40;;;;;;;2.60;2.40;;;18.50;99.90;;;;;;5114641;28;20198;-50
2023/05/10 12:23:07;;;;;;;2.50;2.30;;;18.60;99.90;;;;;;5114962;28;20193;-51
2023/05/10 12:25:35;;;;;;;2.40;2.20;;;18.70;99.90;;;;;;5114322;28;20162;-50
2023/05/10 12:28:03;;;;;;;2.17;1.97;;;18.80;99.90;;;;;;5114253;28;20358;-51
2023/05/10 12:30:31;;;;;;;2.37;2.07;;;19.00;99.90;;;;;;5114551;28;20181;-52
2023/05/10 12:33:03;;;;;;;1.80;1.70;;;19.00;99.90;;;;;;5114112;28;20239;-49
2023/05/10 12:35:32;;;;;;;2.13;1.93;;;19.10;99.90;;;;;;5114420;28;20181;-49
2023/05/10 12:37:57;;;;;;;1.93;1.83;;;19.10;99.90;;;;;;5113955;28;20189;-50
2023/05/10 12:40:23;;;;;;;2.10;2.00;;;19.20;99.90;;;;;;5114021;28;20602;-50
2023/05/10 12:42:50;;;;;;;1.87;1.70;;;19.20;99.90;;;;;;5114222;28;20348;-51
2023/05/10 12:45:18;;;;;;;1.60;1.50;;;19.20;99.90;;;;;;5114064;28;20658;-50